createdAt,value
2022-07-28T00:01:56.253Z,1.00
2022-07-28T00:04:26.106Z,1.40
2022-07-28T00:06:56.544Z,3.20
2022-07-28T00:09:30.199Z,5.00
2022-07-28T00:12:01.932Z,2.00
2022-07-28T00:14:32.327Z,3.20
2022-07-28T00:17:04.348Z,4.00
2022-07-28T00:19:40.257Z,2.60
2022-07-28T00:22:10.119Z,4.00
2022-07-28T00:24:49.218Z,3.00
2022-07-28T00:27:21.209Z,2.40
2022-07-28T00:29:53.569Z,3.00
2022-07-28T00:32:24.950Z,3.60
2022-07-28T00:34:55.396Z,2.60
2022-07-28T00:37:26.579Z,3.40
2022-07-28T00:39:59.997Z,3.20
2022-07-28T00:42:29.738Z,3.80
2022-07-28T00:44:59.518Z,3.00
2022-07-28T00:47:33.798Z,2.80
2022-07-28T00:50:07.468Z,5.60
2022-07-28T00:52:38.170Z,2.00
2022-07-28T00:55:11.800Z,2.60
2022-07-28T00:57:44.450Z,2.80
2022-07-28T01:00:15.965Z,2.80
2022-07-28T01:02:49.364Z,4.20
2022-07-28T01:05:43.974Z,1.00
2022-07-28T01:08:29.737Z,1.00
2022-07-28T01:11:48.400Z,2.20
2022-07-28T01:14:34.846Z,2.80
2022-07-28T01:17:17.961Z,4.00
2022-07-28T01:20:04.759Z,1.80
2022-07-28T01:22:42.887Z,2.00
2022-07-28T01:25:19.899Z,2.60
2022-07-28T01:28:29.784Z,1.00
2022-07-28T01:31:08.124Z,1.60
2022-07-28T01:34:02.319Z,1.20
2022-07-28T01:36:36.888Z,1.80
2022-07-28T01:39:07.048Z,1.00
2022-07-28T01:41:41.742Z,2.00
2022-07-28T01:46:32.689Z,2.00
2022-07-28T01:48:52.728Z,2.00
2022-07-28T01:52:40.233Z,2.80
2022-07-28T01:55:13.493Z,1.80
2022-07-28T01:57:45.644Z,2.00
2022-07-28T02:00:44.087Z,1.00
2022-07-28T02:03:15.416Z,1.00
2022-07-28T02:05:53.673Z,2.00
2022-07-28T02:08:40.780Z,2.20
2022-07-28T02:11:29.670Z,1.40
2022-07-28T02:14:10.814Z,2.00
2022-07-28T02:16:54.861Z,1.60
2022-07-28T02:19:26.018Z,1.40
2022-07-28T02:21:57.836Z,1.00
2022-07-28T02:24:36.131Z,2.40
2022-07-28T02:27:37.321Z,1.60
2022-07-28T02:30:15.504Z,1.00
2022-07-28T02:32:59.466Z,1.80
2022-07-28T02:36:06.191Z,2.00
2022-07-28T02:38:44.520Z,3.00
2022-07-28T02:41:32.391Z,1.60
2022-07-28T02:44:08.280Z,1.80
2022-07-28T02:46:48.686Z,2.40
2022-07-28T02:49:32.615Z,2.00
2022-07-28T02:52:09.159Z,1.00
2022-07-28T02:54:43.091Z,2.00
2022-07-28T02:57:16.947Z,2.00
2022-07-28T02:59:52.802Z,0.60
2022-07-28T03:02:27.418Z,1.00
2022-07-28T03:05:00.002Z,2.40
2022-07-28T03:07:50.587Z,2.60
2022-07-28T03:10:33.621Z,2.80
2022-07-28T03:13:10.631Z,5.20
2022-07-28T03:15:44.154Z,2.60
2022-07-28T03:18:17.308Z,2.80
2022-07-28T03:20:48.723Z,3.40
2022-07-28T03:23:19.803Z,2.00
2022-07-28T03:25:54.603Z,2.60
2022-07-28T03:28:27.463Z,2.20
2022-07-28T03:31:05.512Z,2.00
2022-07-28T03:33:38.920Z,2.40
2022-07-28T03:36:16.005Z,3.80
2022-07-28T03:38:57.873Z,4.20
2022-07-28T03:41:30.170Z,2.00
2022-07-28T03:44:03.935Z,1.60
2022-07-28T03:46:37.135Z,3.00
2022-07-28T03:49:16.395Z,2.00
2022-07-28T03:51:46.031Z,3.60
2022-07-28T03:54:17.616Z,4.00
2022-07-28T03:56:48.031Z,2.60
2022-07-28T03:59:19.292Z,4.20
2022-07-28T04:01:50.055Z,3.40
2022-07-28T04:04:20.907Z,2.80
2022-07-28T04:06:53.344Z,2.80
2022-07-28T04:09:25.452Z,3.60
2022-07-28T04:11:57.311Z,4.60
2022-07-28T04:14:28.831Z,3.00
2022-07-28T04:17:01.633Z,4.80
2022-07-28T04:19:33.137Z,4.40
2022-07-28T04:22:03.319Z,3.00
2022-07-28T04:24:33.741Z,3.00
2022-07-28T04:27:04.575Z,2.00
2022-07-28T04:29:35.875Z,4.80
2022-07-28T04:32:10.259Z,4.00
2022-07-28T04:34:40.535Z,3.60
2022-07-28T04:37:10.551Z,3.60
2022-07-28T04:39:40.602Z,4.00
2022-07-28T04:42:14.464Z,3.20
2022-07-28T04:44:45.413Z,6.00
2022-07-28T04:47:15.900Z,6.00
2022-07-28T04:49:49.137Z,5.40
2022-07-28T04:52:20.418Z,4.80
2022-07-28T04:54:52.878Z,6.00
2022-07-28T04:57:24.483Z,8.60
2022-07-28T04:59:57.368Z,6.00
2022-07-28T05:02:29.584Z,9.60
2022-07-28T05:05:00.977Z,8.40
2022-07-28T05:07:32.024Z,7.60
2022-07-28T05:10:03.501Z,11.40
2022-07-28T05:12:33.378Z,6.00
2022-07-28T05:15:06.754Z,5.00
2022-07-28T05:17:40.419Z,8.80
2022-07-28T05:20:11.381Z,7.40
2022-07-28T05:22:49.607Z,14.40
2022-07-28T05:25:25.664Z,11.80
2022-07-28T05:27:59.986Z,14.25
2022-07-28T05:30:37.261Z,12.50
2022-07-28T05:33:12.221Z,7.60
2022-07-28T05:35:55.402Z,9.80
2022-07-28T05:38:48.222Z,11.00
2022-07-28T05:41:21.407Z,11.00
2022-07-28T05:43:54.121Z,9.00
2022-07-28T05:46:24.425Z,3.50
2022-07-28T05:48:55.683Z,12.25
2022-07-28T05:51:25.707Z,11.60
2022-07-28T05:53:56.272Z,10.50
2022-07-28T05:56:28.108Z,12.50
2022-07-28T05:58:59.885Z,13.50
2022-07-28T06:01:30.417Z,11.80
2022-07-28T06:04:26.080Z,10.20
2022-07-28T06:07:01.690Z,10.40
2022-07-28T06:09:33.124Z,8.60
2022-07-28T06:12:03.388Z,8.40
2022-07-28T06:14:36.915Z,10.20
2022-07-28T06:17:09.584Z,8.60
2022-07-28T06:19:39.616Z,10.20
2022-07-28T06:22:12.067Z,7.00
2022-07-28T06:24:42.351Z,7.80
2022-07-28T06:27:12.998Z,7.40
2022-07-28T06:29:46.165Z,7.20
2022-07-28T06:32:18.374Z,6.00
2022-07-28T06:34:48.165Z,0.40
2022-07-28T06:37:18.872Z,8.00
2022-07-28T06:39:52.338Z,5.40
2022-07-28T06:42:25.202Z,6.20
2022-07-28T06:44:59.202Z,3.00
2022-07-28T06:47:30.627Z,7.60
2022-07-28T06:50:04.447Z,5.40
2022-07-28T06:52:38.451Z,6.00
2022-07-28T06:55:09.596Z,4.00
2022-07-28T06:57:42.151Z,6.00
2022-07-28T07:00:14.908Z,4.00
2022-07-28T07:02:46.094Z,5.60
2022-07-28T07:05:17.640Z,4.40
2022-07-28T07:07:48.893Z,4.20
2022-07-28T07:10:20.090Z,6.00
2022-07-28T07:12:52.764Z,4.40
2022-07-28T07:15:27.966Z,4.60
2022-07-28T07:17:59.417Z,4.00
2022-07-28T07:20:32.666Z,4.00
2022-07-28T07:23:04.600Z,5.40
2022-07-28T07:25:36.683Z,4.40
2022-07-28T07:28:08.129Z,4.80
2022-07-28T07:30:41.251Z,5.20
2022-07-28T07:33:13.130Z,4.20
2022-07-28T07:35:47.262Z,5.00
2022-07-28T07:38:19.065Z,3.60
2022-07-28T07:40:53.371Z,4.00
2022-07-28T07:43:29.928Z,2.80
2022-07-28T07:45:59.879Z,3.00
2022-07-28T07:48:29.916Z,4.00
2022-07-28T07:51:02.449Z,4.00
2022-07-28T07:53:35.340Z,5.40
2022-07-28T07:56:07.925Z,3.80
2022-07-28T07:58:40.761Z,5.00
2022-07-28T08:01:10.964Z,0.40
2022-07-28T08:03:43.526Z,5.00
2022-07-28T08:06:13.853Z,2.20
2022-07-28T08:08:52.366Z,3.80
2022-07-28T08:11:22.684Z,4.20
2022-07-28T08:13:53.580Z,3.00
2022-07-28T08:16:23.983Z,3.40
2022-07-28T08:18:58.509Z,4.00
2022-07-28T08:21:31.958Z,4.00
2022-07-28T08:24:01.733Z,2.00
2022-07-28T08:26:33.061Z,2.00
2022-07-28T08:29:02.456Z,1.00
2022-07-28T08:31:36.834Z,5.80
2022-07-28T08:34:31.109Z,3.40
2022-07-28T08:37:03.718Z,4.75
2022-07-28T08:39:35.631Z,3.20
2022-07-28T08:42:16.605Z,3.25
2022-07-28T08:45:01.394Z,2.75
2022-07-28T08:47:58.832Z,4.25
2022-07-28T08:50:29.246Z,5.25
2022-07-28T08:53:02.223Z,4.00
2022-07-28T08:55:33.656Z,1.00
2022-07-28T08:58:06.488Z,3.75
2022-07-28T09:00:36.671Z,3.50
2022-07-28T09:03:08.424Z,3.50
2022-07-28T09:05:45.554Z,5.25
2022-07-28T09:08:18.653Z,3.00
2022-07-28T09:10:51.470Z,3.50
2022-07-28T09:13:24.171Z,4.50
2022-07-28T09:15:55.653Z,4.00
2022-07-28T09:18:29.325Z,5.00
2022-07-28T09:20:59.139Z,3.50
2022-07-28T09:23:47.781Z,4.00
2022-07-28T09:26:18.955Z,2.75
2022-07-28T09:28:53.675Z,2.20
2022-07-28T09:31:27.653Z,2.50
2022-07-28T09:34:02.250Z,4.50
2022-07-28T09:36:40.298Z,4.00
2022-07-28T09:39:12.354Z,3.00
2022-07-28T09:41:56.446Z,4.75
2022-07-28T09:44:30.462Z,2.25
2022-07-28T09:47:24.447Z,3.00
2022-07-28T09:49:55.141Z,4.50
2022-07-28T09:52:47.964Z,4.25
2022-07-28T09:55:20.833Z,4.00
2022-07-28T09:57:51.941Z,3.75
2022-07-28T10:00:31.847Z,3.00
2022-07-28T10:03:01.838Z,3.50
2022-07-28T10:05:42.489Z,5.25
2022-07-28T10:08:13.212Z,4.50
2022-07-28T10:10:44.790Z,3.75
2022-07-28T10:13:20.045Z,4.00
2022-07-28T10:16:13.264Z,3.50
2022-07-28T10:18:44.848Z,5.00
2022-07-28T10:21:17.728Z,4.00
2022-07-28T10:23:55.841Z,4.00
2022-07-28T10:26:55.092Z,4.50
2022-07-28T10:29:28.815Z,3.50
2022-07-28T10:32:08.334Z,4.25
2022-07-28T10:34:48.992Z,4.00
2022-07-28T10:37:29.296Z,5.00
2022-07-28T10:40:10.971Z,6.00
2022-07-28T10:42:42.210Z,4.75
2022-07-28T10:45:14.623Z,5.00
2022-07-28T10:47:45.641Z,4.00
2022-07-28T10:50:15.657Z,5.00
2022-07-28T10:52:55.973Z,5.00
2022-07-28T10:55:36.176Z,5.00
2022-07-28T10:58:44.324Z,5.00
2022-07-28T11:01:53.831Z,4.75
2022-07-28T11:04:49.363Z,3.25
2022-07-28T11:07:23.379Z,5.25
2022-07-28T11:09:56.243Z,5.00
2022-07-28T11:12:49.638Z,5.00
2022-07-28T11:15:39.755Z,5.00
2022-07-28T11:18:11.985Z,7.00
2022-07-28T11:21:01.218Z,5.50
2022-07-28T11:23:48.144Z,5.00
2022-07-28T11:26:24.145Z,8.00
2022-07-28T11:29:05.129Z,6.00
2022-07-28T11:31:48.649Z,4.75
2022-07-28T11:34:21.200Z,5.00
2022-07-28T11:37:15.251Z,5.75
2022-07-28T11:39:49.668Z,5.00
2022-07-28T11:42:33.882Z,4.75
2022-07-28T11:45:35.121Z,5.00
2022-07-28T11:48:26.633Z,5.00
2022-07-28T11:51:06.127Z,5.00
2022-07-28T11:53:55.635Z,4.00
2022-07-28T11:56:30.360Z,4.25
2022-07-28T11:59:06.938Z,6.25
2022-07-28T12:01:38.778Z,5.00
2022-07-28T12:04:14.873Z,6.00
2022-07-28T12:06:51.276Z,4.25
2022-07-28T12:09:42.370Z,5.00
2022-07-28T12:12:14.444Z,5.75
2022-07-28T12:14:44.768Z,4.25
2022-07-28T12:17:16.462Z,5.75
2022-07-28T12:19:48.054Z,4.00
2022-07-28T12:22:18.505Z,4.50
2022-07-28T12:24:50.564Z,5.00
2022-07-28T12:27:31.913Z,6.25
2022-07-28T12:30:05.954Z,4.75
2022-07-28T12:32:40.077Z,5.00
2022-07-28T12:35:11.706Z,5.00
2022-07-28T12:37:45.297Z,7.75
2022-07-28T12:40:17.316Z,5.00
2022-07-28T12:43:00.126Z,4.25
2022-07-28T12:45:35.293Z,6.75
2022-07-28T12:48:16.089Z,6.00
2022-07-28T12:50:47.144Z,2.50
2022-07-28T12:53:24.075Z,4.00
2022-07-28T12:56:03.307Z,4.75
2022-07-28T12:58:34.040Z,4.75
2022-07-28T13:01:10.998Z,7.25
2022-07-28T13:03:53.780Z,5.00
2022-07-28T13:06:24.562Z,6.00
2022-07-28T13:08:57.018Z,3.00
2022-07-28T13:11:46.223Z,4.00
2022-07-28T13:14:20.670Z,6.00
2022-07-28T13:17:01.095Z,4.00
2022-07-28T13:19:35.737Z,5.75
2022-07-28T13:22:10.078Z,6.00
2022-07-28T13:24:40.026Z,6.00
2022-07-28T13:27:12.102Z,8.00
2022-07-28T13:29:42.885Z,5.25
2022-07-28T13:32:14.158Z,5.00
2022-07-28T13:34:46.720Z,3.25
2022-07-28T13:37:17.883Z,4.00
2022-07-28T13:39:54.672Z,5.00
2022-07-28T13:42:28.841Z,6.25
2022-07-28T13:45:05.009Z,5.75
2022-07-28T13:47:38.944Z,5.00
2022-07-28T13:50:11.454Z,4.00
2022-07-28T13:52:43.964Z,3.50
2022-07-28T13:55:17.631Z,5.00
2022-07-28T13:57:51.655Z,5.00
2022-07-28T14:00:23.589Z,4.25
2022-07-28T14:02:59.014Z,3.25
2022-07-28T14:05:32.079Z,4.75
2022-07-28T14:08:04.475Z,4.40
2022-07-28T14:10:36.937Z,5.20
2022-07-28T14:13:08.814Z,12.25
2022-07-28T14:15:44.562Z,17.00
2022-07-28T14:18:16.011Z,15.00
2022-07-28T14:20:46.230Z,10.75
2022-07-28T14:23:17.988Z,5.00
2022-07-28T14:25:50.960Z,3.60
2022-07-28T14:28:22.776Z,3.20
2022-07-28T14:30:54.260Z,2.00
2022-07-28T14:33:24.955Z,3.00
2022-07-28T14:35:57.007Z,3.00
2022-07-28T14:38:51.834Z,3.20
2022-07-28T14:41:23.628Z,4.20
2022-07-28T14:43:55.160Z,4.20
2022-07-28T14:46:29.770Z,3.60
2022-07-28T14:49:06.907Z,4.20
2022-07-28T14:51:42.979Z,5.00
2022-07-28T14:54:17.539Z,4.40
2022-07-28T14:56:50.200Z,3.80
2022-07-28T14:59:20.333Z,4.00
2022-07-28T15:01:51.226Z,4.20
2022-07-28T15:04:23.327Z,5.00
2022-07-28T15:06:54.309Z,4.00
2022-07-28T15:09:26.353Z,5.00
2022-07-28T15:11:57.105Z,5.20
2022-07-28T15:14:31.040Z,2.00
2022-07-28T15:17:02.030Z,4.00
2022-07-28T15:19:37.370Z,5.20
2022-07-28T15:22:08.627Z,7.20
2022-07-28T15:24:38.544Z,5.80
2022-07-28T15:27:12.920Z,1.80
2022-07-28T15:29:43.655Z,4.00
2022-07-28T15:32:17.240Z,4.00
2022-07-28T15:34:54.137Z,4.00
2022-07-28T15:37:26.109Z,4.20
2022-07-28T15:39:56.848Z,2.60
2022-07-28T15:42:28.154Z,3.20
2022-07-28T15:45:02.541Z,2.80
2022-07-28T15:47:33.921Z,2.40
2022-07-28T15:50:07.660Z,3.00
2022-07-28T15:52:39.402Z,4.00
2022-07-28T15:55:11.609Z,4.00
2022-07-28T15:57:40.991Z,4.20
2022-07-28T16:00:12.695Z,4.20
2022-07-28T16:02:42.687Z,4.40
2022-07-28T16:05:13.254Z,4.20
2022-07-28T16:07:45.174Z,3.20
2022-07-28T16:10:16.166Z,3.20
2022-07-28T16:12:45.917Z,4.60
2022-07-28T16:15:18.592Z,5.00
2022-07-28T16:17:48.241Z,3.40
2022-07-28T16:20:20.640Z,3.00
2022-07-28T16:22:50.601Z,3.80
2022-07-28T16:25:22.584Z,4.20
2022-07-28T16:27:52.662Z,2.80
2022-07-28T16:30:24.380Z,1.80
2022-07-28T16:32:59.812Z,1.00
2022-07-28T16:35:38.065Z,3.60
2022-07-28T16:38:12.882Z,3.20
2022-07-28T16:40:43.165Z,3.40
2022-07-28T16:43:13.977Z,2.60
2022-07-28T16:45:44.085Z,4.00
2022-07-28T16:48:17.738Z,2.20
2022-07-28T16:50:48.843Z,3.80
2022-07-28T16:53:19.668Z,3.00
2022-07-28T16:55:49.771Z,3.00
2022-07-28T16:58:23.395Z,3.40
2022-07-28T17:00:55.387Z,2.60
2022-07-28T17:03:25.728Z,3.00
2022-07-28T17:06:00.032Z,3.40
2022-07-28T17:08:30.514Z,3.00
2022-07-28T17:11:01.467Z,1.60
2022-07-28T17:13:36.487Z,3.00
2022-07-28T17:16:07.400Z,5.00
2022-07-28T17:18:39.126Z,3.20
2022-07-28T17:21:14.882Z,3.00
2022-07-28T17:23:46.127Z,2.00
2022-07-28T17:27:30.726Z,3.60
2022-07-28T17:29:08.461Z,5.00
2022-07-28T17:31:40.384Z,2.00
2022-07-28T17:34:13.099Z,4.00
2022-07-28T17:36:49.708Z,3.00
2022-07-28T17:39:21.318Z,4.20
2022-07-28T17:41:52.241Z,3.80
2022-07-28T17:44:23.231Z,2.80
2022-07-28T17:46:54.041Z,4.00
2022-07-28T17:49:26.031Z,2.40
2022-07-28T17:51:58.789Z,2.60
2022-07-28T17:54:50.888Z,2.80
2022-07-28T17:57:25.127Z,3.20
2022-07-28T17:59:57.185Z,3.00
2022-07-28T18:02:29.738Z,4.00
2022-07-28T18:04:59.630Z,5.60
2022-07-28T18:07:48.717Z,2.20
2022-07-28T18:10:24.690Z,3.40
2022-07-28T18:12:57.375Z,3.00
2022-07-28T18:15:31.185Z,2.40
2022-07-28T18:18:01.489Z,4.00
2022-07-28T18:20:33.030Z,4.80
2022-07-28T18:23:06.850Z,2.80
2022-07-28T18:25:45.139Z,3.00
2022-07-28T18:28:17.181Z,4.00
2022-07-28T18:30:47.850Z,3.80
2022-07-28T18:33:20.033Z,3.20
2022-07-28T18:35:50.872Z,6.20
2022-07-28T18:38:21.118Z,1.60
2022-07-28T18:40:54.356Z,3.00
2022-07-28T18:43:25.092Z,3.20
2022-07-28T18:45:55.232Z,3.20
2022-07-28T18:48:26.763Z,6.00
2022-07-28T18:50:56.758Z,3.20
2022-07-28T18:53:29.155Z,3.00
2022-07-28T18:56:02.132Z,4.00
2022-07-28T18:58:32.655Z,2.00
2022-07-28T19:01:04.198Z,3.00
2022-07-28T19:03:40.815Z,3.00
2022-07-28T19:06:12.464Z,3.80
2022-07-28T19:08:42.455Z,2.40
2022-07-28T19:11:18.740Z,3.00
2022-07-28T19:13:50.590Z,3.00
2022-07-28T19:16:21.070Z,3.00
2022-07-28T19:18:53.373Z,2.40
2022-07-28T19:21:23.876Z,2.40
2022-07-28T19:23:55.425Z,2.00
2022-07-28T19:26:31.071Z,3.20
2022-07-28T19:29:02.215Z,3.00
2022-07-28T19:31:31.680Z,2.00
2022-07-28T19:34:02.286Z,2.00
2022-07-28T19:36:35.308Z,1.00
2022-07-28T19:39:08.413Z,2.60
2022-07-28T19:41:39.785Z,1.60
2022-07-28T19:44:10.871Z,2.00
2022-07-28T19:46:41.759Z,2.00
2022-07-28T19:49:14.566Z,2.00
2022-07-28T19:51:45.058Z,2.20
2022-07-28T19:54:16.009Z,1.80
2022-07-28T19:56:46.887Z,4.80
2022-07-28T19:59:17.980Z,2.60
2022-07-28T20:01:50.632Z,1.00
2022-07-28T20:04:22.263Z,2.40
2022-07-28T20:06:55.771Z,2.40
2022-07-28T20:09:29.213Z,1.20
2022-07-28T20:12:01.847Z,2.00
2022-07-28T20:14:33.219Z,3.20
2022-07-28T20:17:09.381Z,3.00
2022-07-28T20:19:39.249Z,3.00
2022-07-28T20:22:10.904Z,2.00
2022-07-28T20:24:41.595Z,2.00
2022-07-28T20:27:12.161Z,2.00
2022-07-28T20:29:46.614Z,3.80
2022-07-28T20:32:17.492Z,2.40
2022-07-28T20:34:47.712Z,2.20
2022-07-28T20:37:35.665Z,1.60
2022-07-28T20:40:10.228Z,2.20
2022-07-28T20:42:48.625Z,1.40
2022-07-28T20:45:21.124Z,2.40
2022-07-28T20:47:56.871Z,1.80
2022-07-28T20:50:28.933Z,2.00
2022-07-28T20:53:09.809Z,2.00
2022-07-28T20:55:41.236Z,2.00
2022-07-28T20:58:14.325Z,3.00
2022-07-28T21:00:46.822Z,2.60
2022-07-28T21:03:16.783Z,2.40
2022-07-28T21:05:48.669Z,1.40
2022-07-28T21:08:21.706Z,2.60
2022-07-28T21:10:52.911Z,2.00
2022-07-28T21:13:24.300Z,2.60
2022-07-28T21:15:57.495Z,3.80
2022-07-28T21:18:29.470Z,3.80
2022-07-28T21:21:00.669Z,3.00
2022-07-28T21:23:30.480Z,2.00
2022-07-28T21:26:00.202Z,2.20
2022-07-28T21:28:51.743Z,1.00
2022-07-28T21:31:21.943Z,2.00
2022-07-28T21:33:53.066Z,3.00
2022-07-28T21:36:23.717Z,2.40
2022-07-28T21:38:53.511Z,4.20
2022-07-28T21:41:36.595Z,2.00
2022-07-28T21:44:11.893Z,2.00
2022-07-28T21:46:44.328Z,3.80
2022-07-28T21:49:14.451Z,1.00
2022-07-28T21:51:45.217Z,4.40
2022-07-28T21:54:17.535Z,3.00
2022-07-28T21:56:52.585Z,2.00
2022-07-28T21:59:26.737Z,4.00
2022-07-28T22:01:57.402Z,2.00
2022-07-28T22:04:29.704Z,4.00
2022-07-28T22:07:00.196Z,1.60
2022-07-28T22:09:37.769Z,3.20
2022-07-28T22:12:09.236Z,3.40
2022-07-28T22:14:39.751Z,2.60
2022-07-28T22:17:10.348Z,1.80
2022-07-28T22:19:40.551Z,4.00
2022-07-28T22:22:11.306Z,3.00
2022-07-28T22:24:45.497Z,2.60
2022-07-28T22:27:15.062Z,3.00
2022-07-28T22:29:52.138Z,1.80
2022-07-28T22:32:29.079Z,4.20
2022-07-28T22:35:02.647Z,2.00
2022-07-28T22:37:33.931Z,2.60
2022-07-28T22:40:04.927Z,2.40
2022-07-28T22:42:36.085Z,4.00
2022-07-28T22:45:10.130Z,3.00
2022-07-28T22:47:39.600Z,2.00
2022-07-28T22:50:11.168Z,2.20
2022-07-28T22:52:42.271Z,2.40
2022-07-28T22:55:15.352Z,2.00
2022-07-28T22:57:50.582Z,3.00
2022-07-28T23:00:22.078Z,2.80
2022-07-28T23:02:54.623Z,2.80
2022-07-28T23:05:25.980Z,3.20
2022-07-28T23:07:59.937Z,3.00
2022-07-28T23:10:33.112Z,2.40
2022-07-28T23:13:05.198Z,2.40
2022-07-28T23:15:40.575Z,3.00
2022-07-28T23:18:12.662Z,2.00
2022-07-28T23:20:48.475Z,3.20
2022-07-28T23:23:25.777Z,3.40
2022-07-28T23:25:56.602Z,2.80
2022-07-28T23:28:27.541Z,2.40
2022-07-28T23:31:02.745Z,2.00
2022-07-28T23:33:56.494Z,2.00
2022-07-28T23:36:26.853Z,3.20
2022-07-28T23:39:00.909Z,2.20
2022-07-28T23:41:33.062Z,2.40
2022-07-28T23:44:04.787Z,1.40
2022-07-28T23:46:38.607Z,2.60
2022-07-28T23:49:09.809Z,3.00
2022-07-28T23:51:47.066Z,2.40
2022-07-28T23:54:20.432Z,2.00
2022-07-28T23:56:59.781Z,3.20
2022-07-28T23:59:35.062Z,2.00
